Time;durP1;ratioP1;P1;durP2;ratioP2;P2;SDS_P1;SDS_P2;PMS_P1;PMS_P2;Temp;Humidity;BMP_temperature;BMP_pressure;BME280_temperature;BME280_humidity;BME280_pressure;Samples;Min_cycle;Max_cycle;Signal;HPM_P1;HPM_P2
2022/05/26 00:00:10;;;;;;;36.67;30.73;;;22.10;99.90;;;;;;5050892;28;20494;-66
2022/05/26 00:02:38;;;;;;;37.37;30.60;;;22.10;99.90;;;;;;5033126;28;20473;-68
2022/05/26 00:05:06;;;;;;;37.87;31.20;;;22.20;99.90;;;;;;5050740;28;20466;-65
2022/05/26 00:07:33;;;;;;;38.23;31.07;;;22.30;99.90;;;;;;5050282;28;20923;-66
2022/05/26 00:10:00;;;;;;;38.00;33.30;;;22.30;99.90;;;;;;5050223;28;20449;-66
2022/05/26 00:12:27;;;;;;;36.47;32.57;;;22.20;99.90;;;;;;5050247;28;20454;-67
2022/05/26 00:14:54;;;;;;;40.83;32.10;;;22.30;99.90;;;;;;5050634;28;20454;-67
2022/05/26 00:17:22;;;;;;;39.60;35.30;;;22.30;99.90;;;;;;5050581;28;20803;-67
2022/05/26 00:19:51;;;;;;;37.93;31.90;;;22.30;99.90;;;;;;5050394;28;20962;-63
2022/05/26 00:22:18;;;;;;;35.97;31.73;;;22.30;99.90;;;;;;5050127;28;20496;-63
2022/05/26 00:24:45;;;;;;;38.17;32.83;;;22.10;99.90;;;;;;5050199;28;20450;-63
2022/05/26 00:27:12;;;;;;;35.87;30.67;;;22.10;99.90;;;;;;5049811;28;20942;-65
2022/05/26 00:29:40;;;;;;;36.13;32.30;;;22.10;99.90;;;;;;5050299;28;20454;-64
2022/05/26 00:32:08;;;;;;;39.07;32.87;;;22.10;99.90;;;;;;5050237;28;20540;-65
2022/05/26 00:34:35;;;;;;;36.67;32.57;;;22.00;99.90;;;;;;5050233;28;20446;-63
2022/05/26 00:37:07;;;;;;;34.83;30.60;;;22.00;99.90;;;;;;5050091;28;20796;-63
2022/05/26 00:39:34;;;;;;;40.17;31.47;;;22.00;99.90;;;;;;5050031;28;20824;-66
2022/05/26 00:42:04;;;;;;;40.93;35.03;;;22.10;99.90;;;;;;5049535;28;20488;-65
2022/05/26 00:44:31;;;;;;;38.63;34.27;;;22.00;99.90;;;;;;5050209;28;20536;-67
2022/05/26 00:47:05;;;;;;;41.60;33.63;;;22.00;99.90;;;;;;5049795;28;20462;-67
2022/05/26 00:49:41;;;;;;;39.20;34.90;;;21.90;99.90;;;;;;5049535;28;20452;-64
2022/05/26 00:52:14;;;;;;;38.30;34.10;;;21.70;99.90;;;;;;5049798;28;20480;-65
2022/05/26 00:54:44;;;;;;;40.00;34.17;;;21.60;99.90;;;;;;5049975;28;20454;-63
2022/05/26 00:57:17;;;;;;;38.07;33.47;;;21.50;99.90;;;;;;5049271;28;20461;-65
2022/05/26 00:59:48;;;;;;;39.83;33.00;;;21.60;99.90;;;;;;5049166;28;20485;-67
2022/05/26 01:02:18;;;;;;;41.87;34.30;;;21.60;99.90;;;;;;5049753;28;20482;-65
2022/05/26 01:04:49;;;;;;;38.37;34.27;;;21.70;99.90;;;;;;5049745;28;20461;-66
2022/05/26 01:07:22;;;;;;;42.33;34.20;;;21.60;99.90;;;;;;5049874;28;20456;-67
2022/05/26 01:09:49;;;;;;;42.60;35.00;;;21.60;99.90;;;;;;5049364;28;20457;-64
2022/05/26 01:12:16;;;;;;;40.70;32.33;;;21.50;99.90;;;;;;5049447;28;20470;-65
2022/05/26 01:14:49;;;;;;;38.77;33.90;;;21.60;99.90;;;;;;5049449;28;20901;-67
2022/05/26 01:17:30;;;;;;;41.83;35.63;;;21.70;99.90;;;;;;5049638;28;20453;-65
2022/05/26 01:20:17;;;;;;;41.97;37.40;;;21.50;99.90;;;;;;5049540;28;20478;-67
2022/05/26 01:23:27;;;;;;;42.83;36.53;;;21.30;99.90;;;;;;5049546;28;20458;-68
2022/05/26 01:26:29;;;;;;;40.03;35.30;;;21.00;99.90;;;;;;5049629;28;20548;-67
2022/05/26 01:29:24;;;;;;;41.73;34.30;;;21.00;99.90;;;;;;5015465;28;20461;-67
2022/05/26 01:31:56;;;;;;;41.60;35.30;;;21.00;99.90;;;;;;5049383;28;20478;-65
2022/05/26 01:34:35;;;;;;;39.60;34.87;;;21.00;99.90;;;;;;5049484;28;20445;-66
2022/05/26 01:37:09;;;;;;;41.30;35.67;;;21.00;99.90;;;;;;5049425;28;20445;-67
2022/05/26 01:39:42;;;;;;;42.87;35.77;;;21.20;99.90;;;;;;5049176;28;20442;-68
2022/05/26 01:42:20;;;;;;;39.60;35.50;;;21.20;99.90;;;;;;5048733;28;20491;-65
2022/05/26 01:44:54;;;;;;;41.63;35.07;;;21.00;99.90;;;;;;5049334;28;20457;-68
2022/05/26 01:47:36;;;;;;;40.97;36.47;;;21.00;99.90;;;;;;5049333;28;20923;-64
2022/05/26 01:50:12;;;;;;;39.13;35.10;;;20.90;99.90;;;;;;5048749;28;20458;-66
2022/05/26 01:52:45;;;;;;;43.23;36.87;;;20.70;99.90;;;;;;5049203;28;20941;-65
2022/05/26 01:55:18;;;;;;;40.33;33.73;;;20.70;99.90;;;;;;5049107;28;20457;-63
2022/05/26 01:57:54;;;;;;;46.70;34.77;;;20.90;99.90;;;;;;5048800;28;20535;-65
2022/05/26 02:00:21;;;;;;;42.00;33.50;;;21.00;99.90;;;;;;5048843;28;20493;-64
2022/05/26 02:02:55;;;;;;;41.43;35.17;;;21.10;99.90;;;;;;5049164;28;20528;-64
2022/05/26 02:05:26;;;;;;;41.13;36.67;;;21.10;99.90;;;;;;5049199;28;20454;-65
2022/05/26 02:07:56;;;;;;;43.77;35.37;;;21.10;99.90;;;;;;5049149;28;21195;-66
2022/05/26 02:10:29;;;;;;;40.83;34.87;;;21.10;99.90;;;;;;5051631;28;20829;-66
2022/05/26 02:13:01;;;;;;;36.97;32.03;;;21.00;99.90;;;;;;5052804;28;20465;-63
2022/05/26 02:15:33;;;;;;;42.37;36.80;;;21.00;99.90;;;;;;5052879;28;20516;-67
2022/05/26 02:18:07;;;;;;;43.13;35.83;;;21.00;99.90;;;;;;5052849;28;20468;-67
2022/05/26 02:20:40;;;;;;;46.33;36.10;;;20.80;99.90;;;;;;5052641;28;20860;-66
2022/05/26 02:23:12;;;;;;;40.10;33.07;;;20.70;99.90;;;;;;5052631;28;20499;-66
2022/05/26 02:25:40;;;;;;;37.87;33.67;;;20.80;99.90;;;;;;5052540;28;20523;-66
2022/05/26 02:28:07;;;;;;;41.17;35.47;;;20.70;99.90;;;;;;5052610;28;20528;-65
2022/05/26 02:30:38;;;;;;;38.13;33.97;;;20.70;99.90;;;;;;5052571;28;20465;-64
2022/05/26 02:33:11;;;;;;;42.90;34.80;;;20.80;99.90;;;;;;5052687;28;20914;-64
2022/05/26 02:35:40;;;;;;;39.07;34.80;;;20.90;99.90;;;;;;5052568;28;20449;-65
2022/05/26 02:38:10;;;;;;;40.47;35.27;;;21.00;99.90;;;;;;5052336;28;20454;-63
2022/05/26 02:40:37;;;;;;;37.67;33.30;;;21.10;99.90;;;;;;5052006;28;20869;-66
2022/05/26 02:43:10;;;;;;;38.73;34.60;;;21.20;99.90;;;;;;5052237;28;20492;-67
2022/05/26 02:45:46;;;;;;;41.50;34.80;;;21.10;99.90;;;;;;5052422;28;20473;-64
2022/05/26 02:48:28;;;;;;;44.93;37.10;;;21.10;99.90;;;;;;5052263;28;20476;-66
2022/05/26 02:51:04;;;;;;;46.60;35.70;;;21.00;99.90;;;;;;5052234;28;20844;-66
2022/05/26 02:53:35;;;;;;;39.73;35.20;;;20.60;99.90;;;;;;5052230;28;20480;-65
2022/05/26 02:56:11;;;;;;;42.07;35.33;;;20.50;99.90;;;;;;5052189;28;20449;-64
2022/05/26 02:58:50;;;;;;;41.70;36.03;;;20.40;99.90;;;;;;5052200;28;20453;-67
2022/05/26 03:01:23;;;;;;;38.33;34.17;;;20.40;99.90;;;;;;5052146;28;20830;-64
2022/05/26 03:03:57;;;;;;;37.93;32.73;;;20.40;99.90;;;;;;5052123;28;20446;-68
2022/05/26 03:06:30;;;;;;;38.33;32.93;;;20.50;99.90;;;;;;5051412;28;20473;-65
2022/05/26 03:08:59;;;;;;;36.67;32.70;;;20.60;99.90;;;;;;5051709;28;21003;-66
2022/05/26 03:11:27;;;;;;;39.57;34.60;;;20.70;99.90;;;;;;5051783;28;20477;-66
2022/05/26 03:13:55;;;;;;;41.60;33.97;;;20.80;99.90;;;;;;5052063;28;20508;-66
2022/05/26 03:16:22;;;;;;;35.20;31.23;;;20.90;99.90;;;;;;5051898;28;20458;-70
2022/05/26 03:18:51;;;;;;;41.00;33.33;;;21.00;99.90;;;;;;5051797;28;20461;-68
2022/05/26 03:21:20;;;;;;;35.27;31.50;;;21.00;99.90;;;;;;5050787;28;20586;-67
2022/05/26 03:23:47;;;;;;;38.93;34.33;;;21.10;99.90;;;;;;5051736;28;20462;-65
2022/05/26 03:26:15;;;;;;;35.57;31.63;;;21.20;99.90;;;;;;5051863;28;20462;-65
2022/05/26 03:28:42;;;;;;;38.67;32.90;;;21.10;99.90;;;;;;5051719;28;20500;-64
2022/05/26 03:31:10;;;;;;;39.07;32.53;;;21.30;99.90;;;;;;5052548;28;20473;-63
2022/05/26 03:41:53;;;;;;;38.83;34.47;;;21.30;99.90;;;;;;5050683;28;20547;-66
2022/05/26 03:44:21;;;;;;;40.17;35.70;;;21.20;99.90;;;;;;5050790;28;20953;-65
2022/05/26 03:46:50;;;;;;;40.17;35.77;;;21.00;99.90;;;;;;5050953;28;20993;-67
2022/05/26 03:49:18;;;;;;;42.73;35.97;;;20.70;99.90;;;;;;5051090;28;20473;-64
2022/05/26 03:51:46;;;;;;;43.93;33.77;;;20.70;99.90;;;;;;5051053;28;20476;-67
2022/05/26 03:54:13;;;;;;;42.63;35.17;;;20.90;99.90;;;;;;5050990;28;20456;-65
2022/05/26 03:56:40;;;;;;;40.77;34.10;;;21.00;99.90;;;;;;5050350;28;20454;-64
2022/05/26 03:59:07;;;;;;;41.43;34.13;;;21.00;99.90;;;;;;5050523;28;20453;-67
2022/05/26 04:01:35;;;;;;;45.03;36.57;;;21.10;99.90;;;;;;5050493;28;20848;-67
2022/05/26 04:04:02;;;;;;;50.67;38.53;;;21.20;99.90;;;;;;5050861;28;20882;-63
2022/05/26 04:06:29;;;;;;;41.13;36.73;;;20.90;99.90;;;;;;5050953;28;20453;-67
2022/05/26 04:08:57;;;;;;;43.23;37.03;;;20.90;99.90;;;;;;5050682;28;20951;-65
2022/05/26 04:11:24;;;;;;;44.90;35.97;;;21.00;99.90;;;;;;5050517;28;20524;-65
2022/05/26 04:13:52;;;;;;;42.40;34.60;;;21.10;99.90;;;;;;5050203;28;20542;-64
2022/05/26 04:16:19;;;;;;;43.13;36.17;;;21.10;99.90;;;;;;5050438;28;20867;-66
2022/05/26 04:18:46;;;;;;;38.93;33.20;;;21.20;99.90;;;;;;5050446;28;20512;-65
2022/05/26 04:21:14;;;;;;;40.07;35.20;;;21.20;99.90;;;;;;5050249;28;20565;-67
2022/05/26 04:23:42;;;;;;;37.73;33.83;;;21.40;99.90;;;;;;5049860;28;20454;-65
2022/05/26 04:26:11;;;;;;;40.80;33.40;;;21.50;99.90;;;;;;5050296;28;20449;-68
2022/05/26 04:28:39;;;;;;;42.20;34.97;;;21.60;99.90;;;;;;5050055;28;20450;-65
2022/05/26 04:31:06;;;;;;;36.40;32.80;;;21.60;99.90;;;;;;5049978;28;20485;-64
2022/05/26 04:33:34;;;;;;;37.30;33.23;;;21.70;99.90;;;;;;5049277;28;20508;-66
2022/05/26 04:36:05;;;;;;;38.67;34.40;;;21.80;99.90;;;;;;5050165;28;20461;-67
2022/05/26 04:38:32;;;;;;;37.07;32.10;;;21.80;99.90;;;;;;5050093;28;20458;-65
2022/05/26 04:41:00;;;;;;;39.67;34.93;;;21.70;99.90;;;;;;5049748;28;20493;-65
2022/05/26 04:43:30;;;;;;;39.37;35.07;;;21.80;99.90;;;;;;5050032;28;20454;-65
2022/05/26 04:45:58;;;;;;;36.80;32.70;;;22.00;99.90;;;;;;5050319;28;20458;-67
2022/05/26 04:48:25;;;;;;;38.17;33.93;;;22.00;99.90;;;;;;5050292;28;20927;-66
2022/05/26 04:50:53;;;;;;;36.43;32.53;;;22.10;99.90;;;;;;5049988;28;20839;-63
2022/05/26 04:53:21;;;;;;;39.63;34.03;;;22.30;99.90;;;;;;5050053;28;20454;-66
2022/05/26 04:55:53;;;;;;;40.80;33.07;;;22.50;99.90;;;;;;5050063;28;20461;-63
2022/05/26 04:58:20;;;;;;;39.00;34.77;;;22.50;99.90;;;;;;5049828;28;20485;-64
2022/05/26 05:00:49;;;;;;;36.27;32.20;;;22.70;99.90;;;;;;5049265;28;20490;-66
2022/05/26 05:03:17;;;;;;;47.37;39.23;;;22.80;99.90;;;;;;5049831;28;20457;-66
2022/05/26 05:05:44;;;;;;;44.20;38.90;;;22.90;99.90;;;;;;5049457;28;20445;-68
2022/05/26 05:08:11;;;;;;;44.53;37.07;;;22.90;99.90;;;;;;5049674;28;20461;-64
2022/05/26 05:10:38;;;;;;;41.13;36.47;;;23.00;99.90;;;;;;5049873;28;20913;-65
2022/05/26 05:13:05;;;;;;;41.27;35.57;;;23.00;99.90;;;;;;5049869;28;20446;-63
2022/05/26 05:15:37;;;;;;;50.93;38.50;;;23.10;99.90;;;;;;5049615;28;20457;-63
2022/05/26 05:18:06;;;;;;;48.60;37.63;;;23.20;99.90;;;;;;5049363;28;20476;-69
2022/05/26 05:20:34;;;;;;;42.30;36.40;;;23.20;99.90;;;;;;5049213;28;20477;-68
2022/05/26 05:23:04;;;;;;;45.27;37.97;;;23.30;99.90;;;;;;5049464;28;20454;-67
2022/05/26 05:25:37;;;;;;;48.70;38.73;;;23.30;99.90;;;;;;5049310;28;20507;-64
2022/05/26 05:28:08;;;;;;;42.10;35.77;;;23.30;99.90;;;;;;5049344;28;20497;-64
2022/05/26 05:30:39;;;;;;;40.40;34.33;;;23.20;99.90;;;;;;5049090;28;20477;-65
2022/05/26 05:33:13;;;;;;;43.27;36.73;;;23.40;99.90;;;;;;5049070;28;20458;-65
2022/05/26 05:35:46;;;;;;;40.40;36.00;;;23.50;99.90;;;;;;5049061;28;20453;-65
2022/05/26 05:38:14;;;;;;;38.30;34.20;;;23.70;99.90;;;;;;5049225;28;20449;-65
2022/05/26 05:40:41;;;;;;;42.83;35.13;;;23.80;99.90;;;;;;5048958;28;20504;-65
2022/05/26 05:43:08;;;;;;;39.97;34.77;;;23.70;99.90;;;;;;5048757;28;20486;-64
2022/05/26 05:45:37;;;;;;;42.27;34.90;;;23.80;99.90;;;;;;5051913;28;20456;-65
2022/05/26 05:48:04;;;;;;;40.97;35.77;;;24.00;99.90;;;;;;5052943;28;20507;-64
2022/05/26 05:50:33;;;;;;;35.37;31.03;;;24.00;99.90;;;;;;5052663;28;20485;-65
2022/05/26 05:53:00;;;;;;;44.63;34.30;;;24.00;99.90;;;;;;5052915;28;20461;-65
2022/05/26 05:55:27;;;;;;;46.10;32.23;;;24.20;99.90;;;;;;5052896;28;20461;-67
2022/05/26 05:57:54;;;;;;;33.17;29.03;;;24.30;99.90;;;;;;5052655;28;20461;-65
2022/05/26 06:00:21;;;;;;;32.70;29.27;;;24.40;99.90;;;;;;5052746;28;20507;-65
2022/05/26 06:02:48;;;;;;;32.87;27.07;;;24.50;99.90;;;;;;5052740;28;20508;-66
2022/05/26 06:05:15;;;;;;;31.40;28.07;;;24.50;99.90;;;;;;5052249;28;20796;-66
2022/05/26 06:07:44;;;;;;;31.10;25.77;;;24.50;99.90;;;;;;5052249;28;20458;-65
2022/05/26 06:10:13;;;;;;;34.30;27.57;;;24.40;99.90;;;;;;5052287;28;20453;-65
2022/05/26 06:12:40;;;;;;;35.17;28.40;;;24.40;99.90;;;;;;5052186;28;20446;-65
2022/05/26 06:15:08;;;;;;;37.30;27.50;;;24.30;99.90;;;;;;5052605;28;20477;-66
2022/05/26 06:17:36;;;;;;;37.93;29.30;;;24.10;99.90;;;;;;5052529;28;20461;-65
2022/05/26 06:20:03;;;;;;;30.70;26.60;;;24.00;99.90;;;;;;5052562;28;20446;-65
2022/05/26 06:22:30;;;;;;;37.13;25.10;;;24.20;99.90;;;;;;5052462;28;20512;-66
2022/05/26 06:25:00;;;;;;;32.13;26.97;;;24.10;99.90;;;;;;5052375;28;20483;-64
2022/05/26 06:30:17;;;;;;;37.80;28.03;;;24.40;99.90;;;;;;5026131;28;20795;-65
2022/05/26 06:38:15;;;;;;;36.73;27.03;;;24.90;99.90;;;;;;5052410;28;20457;-66
2022/05/26 06:40:43;;;;;;;36.83;28.07;;;24.80;99.90;;;;;;5052063;28;20465;-65
2022/05/26 06:43:10;;;;;;;40.50;28.13;;;25.00;99.90;;;;;;5051447;28;20521;-67
2022/05/26 06:45:39;;;;;;;37.90;30.63;;;25.20;99.90;;;;;;5051934;28;20473;-67
2022/05/26 06:48:07;;;;;;;37.43;29.57;;;25.30;99.90;;;;;;5052069;28;20473;-67
2022/05/26 06:50:34;;;;;;;37.10;29.40;;;25.20;99.90;;;;;;5051759;28;20950;-67
2022/05/26 06:53:02;;;;;;;37.10;30.13;;;25.20;99.90;;;;;;5052076;28;20446;-67
2022/05/26 06:55:29;;;;;;;35.03;27.57;;;25.30;99.90;;;;;;5051347;28;20961;-64
2022/05/26 06:57:57;;;;;;;39.57;29.10;;;25.60;99.90;;;;;;5051441;28;20450;-66
2022/05/26 07:00:24;;;;;;;35.50;27.90;;;25.80;99.90;;;;;;5051925;28;20457;-67
2022/05/26 07:02:52;;;;;;;33.70;26.63;;;25.90;99.90;;;;;;5051565;28;20490;-66
2022/05/26 07:05:20;;;;;;;32.60;25.23;;;25.80;99.90;;;;;;5051879;28;20469;-66
2022/05/26 07:07:47;;;;;;;27.80;20.67;;;25.90;99.90;;;;;;5051241;28;20831;-68
2022/05/26 07:10:14;;;;;;;28.93;20.47;;;25.90;99.90;;;;;;5051504;28;20450;-67
2022/05/26 07:12:42;;;;;;;26.97;21.47;;;26.00;99.90;;;;;;5051159;28;20446;-64
2022/05/26 07:15:12;;;;;;;25.20;19.10;;;26.00;99.90;;;;;;5051126;28;20982;-66
2022/05/26 07:17:39;;;;;;;28.97;18.50;;;26.10;99.90;;;;;;5051414;28;20466;-68
2022/05/26 07:20:07;;;;;;;21.77;17.27;;;25.90;99.90;;;;;;5051615;28;20501;-68
2022/05/26 07:22:34;;;;;;;19.17;15.00;;;26.10;99.90;;;;;;5051360;28;20596;-67
2022/05/26 07:25:02;;;;;;;22.20;14.70;;;26.50;99.90;;;;;;5050968;28;20552;-68
2022/05/26 07:27:29;;;;;;;18.80;13.80;;;26.80;99.90;;;;;;5051108;28;20950;-69
2022/05/26 07:29:56;;;;;;;20.97;12.80;;;27.10;99.90;;;;;;5051276;28;20465;-66
2022/05/26 07:32:24;;;;;;;17.70;11.50;;;27.40;99.90;;;;;;5051392;28;20446;-68
2022/05/26 07:34:52;;;;;;;17.80;11.40;;;27.50;99.90;;;;;;5051174;28;20473;-65
2022/05/26 07:42:48;;;;;;;12.97;7.37;;;27.60;97.80;;;;;;5050643;28;20846;-66
2022/05/26 07:45:15;;;;;;;14.00;7.77;;;27.90;96.50;;;;;;5050836;28;20474;-67
2022/05/26 07:47:44;;;;;;;16.07;6.13;;;28.20;95.60;;;;;;5051028;28;20458;-67
2022/05/26 07:50:19;;;;;;;18.40;6.60;;;28.20;93.40;;;;;;5050850;28;20449;-66
2022/05/26 07:52:46;;;;;;;12.03;5.70;;;28.30;92.50;;;;;;5050929;28;20446;-66
2022/05/26 07:55:14;;;;;;;17.53;5.97;;;28.60;91.80;;;;;;5050636;28;20993;-64
2022/05/26 07:57:41;;;;;;;10.30;5.03;;;28.70;90.70;;;;;;5050894;28;20482;-67
2022/05/26 08:00:10;;;;;;;11.27;5.57;;;28.50;90.10;;;;;;5050600;28;20454;-65
2022/05/26 08:02:37;;;;;;;15.07;6.00;;;28.60;90.90;;;;;;5050753;28;20488;-67
2022/05/26 08:05:06;;;;;;;8.60;6.07;;;28.70;90.90;;;;;;5050476;28;20481;-67
2022/05/26 08:07:33;;;;;;;13.40;5.90;;;29.00;91.80;;;;;;5050252;28;20458;-66
2022/05/26 08:10:00;;;;;;;12.80;6.10;;;29.20;90.10;;;;;;5050405;28;20449;-65
2022/05/26 08:12:27;;;;;;;13.67;5.30;;;29.30;90.10;;;;;;5050647;28;20446;-67
2022/05/26 08:14:54;;;;;;;11.30;5.23;;;29.30;87.70;;;;;;5050441;28;20481;-68
2022/05/26 08:17:23;;;;;;;9.47;5.03;;;29.30;86.50;;;;;;5050138;28;20451;-65
2022/05/26 08:19:51;;;;;;;9.33;4.70;;;29.50;86.50;;;;;;5050191;28;20458;-66
2022/05/26 08:22:20;;;;;;;11.20;6.77;;;29.60;85.20;;;;;;5050277;28;20562;-66
2022/05/26 08:24:51;;;;;;;12.77;5.90;;;29.60;83.30;;;;;;5050293;28;20478;-68
2022/05/26 08:27:18;;;;;;;15.40;6.00;;;29.60;82.00;;;;;;5050300;28;20954;-65
2022/05/26 08:29:45;;;;;;;10.23;4.73;;;29.50;80.90;;;;;;5050323;28;20537;-66
2022/05/26 08:32:12;;;;;;;8.90;4.73;;;29.80;80.70;;;;;;5049750;28;20467;-67
2022/05/26 08:34:40;;;;;;;11.70;5.00;;;29.90;81.40;;;;;;5049940;28;20966;-66
2022/05/26 08:37:12;;;;;;;10.47;5.33;;;30.00;79.90;;;;;;5049825;28;20838;-64
2022/05/26 08:39:40;;;;;;;10.70;6.27;;;29.80;80.30;;;;;;5049848;28;20556;-67
2022/05/26 08:42:12;;;;;;;14.87;5.80;;;29.90;79.70;;;;;;5049432;28;20993;-64
2022/05/26 08:44:40;;;;;;;15.50;5.30;;;29.80;78.30;;;;;;5049568;28;20981;-64
2022/05/26 08:47:11;;;;;;;15.50;5.53;;;29.70;78.10;;;;;;5049655;28;20461;-67
2022/05/26 08:49:41;;;;;;;11.07;5.43;;;29.70;80.10;;;;;;5049838;28;20458;-66
2022/05/26 08:52:14;;;;;;;12.57;5.37;;;29.70;80.60;;;;;;5049454;28;20449;-66
2022/05/26 08:54:48;;;;;;;10.20;5.53;;;29.90;81.20;;;;;;5049405;28;20480;-67
2022/05/26 08:57:18;;;;;;;11.57;5.83;;;30.00;80.60;;;;;;5049687;28;20450;-66
2022/05/26 08:59:47;;;;;;;16.43;6.43;;;30.00;81.10;;;;;;5049607;28;20457;-67
2022/05/26 09:02:24;;;;;;;10.77;5.37;;;30.00;81.70;;;;;;5049631;28;20577;-68
2022/05/26 09:04:51;;;;;;;10.80;5.70;;;29.90;80.60;;;;;;5049654;28;20473;-66
2022/05/26 09:12:59;;;;;;;14.23;5.20;;;29.50;80.60;;;;;;5049589;28;20984;-67
2022/05/26 09:15:27;;;;;;;15.80;5.87;;;29.70;79.80;;;;;;5049659;28;20484;-68
2022/05/26 09:17:55;;;;;;;11.77;5.80;;;29.80;80.60;;;;;;5049169;28;20450;-66
2022/05/26 09:20:35;;;;;;;8.90;5.43;;;30.10;79.10;;;;;;5048873;28;20565;-64
2022/05/26 09:23:12;;;;;;;9.50;5.00;;;30.20;79.20;;;;;;5049076;28;20549;-65
2022/05/26 09:25:45;;;;;;;11.70;6.20;;;30.30;77.50;;;;;;5049145;28;20949;-66
2022/05/26 09:28:13;;;;;;;14.17;5.97;;;30.20;78.20;;;;;;5049028;28;20485;-65
2022/05/26 09:30:40;;;;;;;14.13;4.97;;;30.30;79.00;;;;;;5049398;28;20453;-65
2022/05/26 09:33:19;;;;;;;8.67;4.50;;;30.50;77.40;;;;;;5049311;28;20468;-68
2022/05/26 09:35:47;;;;;;;11.77;5.90;;;30.60;77.30;;;;;;5049035;28;20485;-67
2022/05/26 09:38:19;;;;;;;11.90;6.37;;;30.60;76.90;;;;;;5049239;28;20458;-65
2022/05/26 09:40:48;;;;;;;9.67;6.93;;;30.60;76.90;;;;;;5049082;28;20489;-65
2022/05/26 09:43:26;;;;;;;9.77;6.40;;;30.90;76.20;;;;;;5048784;28;21001;-65
2022/05/26 09:45:56;;;;;;;9.57;5.10;;;31.20;73.60;;;;;;5049404;28;20480;-68
2022/05/26 09:48:29;;;;;;;12.57;5.80;;;31.40;72.70;;;;;;5049167;28;20511;-68
2022/05/26 09:51:07;;;;;;;9.90;5.13;;;31.50;72.10;;;;;;5049210;28;20460;-68
2022/05/26 09:53:38;;;;;;;11.20;5.30;;;31.50;70.60;;;;;;5049002;28;20450;-67
2022/05/26 09:56:08;;;;;;;10.50;5.10;;;31.30;68.70;;;;;;5049113;28;20462;-67
2022/05/26 09:58:39;;;;;;;10.63;5.00;;;31.40;66.70;;;;;;5049013;28;20465;-65
2022/05/26 10:01:13;;;;;;;7.37;4.50;;;31.60;69.10;;;;;;5048984;28;20457;-68
2022/05/26 10:03:54;;;;;;;9.93;4.93;;;31.70;69.30;;;;;;5048821;28;20497;-66
2022/05/26 10:06:29;;;;;;;12.27;5.50;;;31.20;69.40;;;;;;5048642;28;20457;-67
2022/05/26 10:09:18;;;;;;;8.63;4.80;;;31.30;70.90;;;;;;5049027;28;20472;-67
2022/05/26 10:11:59;;;;;;;10.50;5.13;;;31.50;68.90;;;;;;5048782;28;20457;-66
2022/05/26 10:14:42;;;;;;;11.40;5.87;;;31.40;68.50;;;;;;5048628;28;20974;-68
2022/05/26 10:17:19;;;;;;;8.03;4.60;;;31.50;68.40;;;;;;5049057;28;20464;-67
2022/05/26 10:20:25;;;;;;;12.87;5.60;;;31.80;66.90;;;;;;5048999;28;20449;-69
2022/05/26 10:23:13;;;;;;;6.60;4.23;;;32.00;66.40;;;;;;5048812;28;20486;-67
2022/05/26 10:25:48;;;;;;;6.50;4.20;;;32.20;64.30;;;;;;5049028;28;20565;-67
2022/05/26 10:28:35;;;;;;;11.20;4.67;;;32.10;63.60;;;;;;5048325;28;20462;-69
2022/05/26 10:31:12;;;;;;;7.93;3.67;;;31.50;62.30;;;;;;5049298;28;20449;-68
2022/05/26 10:33:52;;;;;;;8.27;4.00;;;31.40;61.60;;;;;;5052330;28;20465;-66
2022/05/26 10:36:24;;;;;;;14.10;4.57;;;31.60;59.20;;;;;;5052519;28;20460;-67
2022/05/26 10:39:10;;;;;;;9.00;4.30;;;31.90;58.60;;;;;;5052347;28;20450;-66
2022/05/26 10:41:41;;;;;;;9.13;3.90;;;32.00;55.80;;;;;;5051633;28;21405;-67
2022/05/26 10:44:22;;;;;;;7.07;3.20;;;32.10;56.60;;;;;;5052068;28;20492;-67
2022/05/26 10:46:58;;;;;;;7.10;2.97;;;32.20;52.60;;;;;;5052105;28;20446;-66
2022/05/26 10:49:34;;;;;;;8.57;3.17;;;32.30;51.60;;;;;;5052188;28;20454;-68
2022/05/26 10:52:07;;;;;;;7.33;3.40;;;32.00;51.00;;;;;;5051843;28;20464;-66
2022/05/26 10:54:41;;;;;;;9.03;3.50;;;32.00;50.80;;;;;;5051760;28;20544;-68
2022/05/26 10:57:13;;;;;;;8.43;3.33;;;32.00;50.10;;;;;;5051968;28;20540;-64
2022/05/26 10:59:47;;;;;;;10.37;4.13;;;32.10;50.70;;;;;;5052013;28;20516;-67
2022/05/26 11:02:20;;;;;;;9.83;4.27;;;32.00;51.80;;;;;;5051802;28;20457;-68
2022/05/26 11:04:54;;;;;;;6.67;3.43;;;32.20;50.60;;;;;;5051347;28;20462;-65
2022/05/26 11:07:27;;;;;;;7.40;4.30;;;32.30;51.50;;;;;;5051804;28;20462;-65
2022/05/26 11:09:58;;;;;;;8.40;4.10;;;32.50;53.70;;;;;;5051717;28;20460;-65
2022/05/26 11:12:31;;;;;;;9.20;4.53;;;32.50;54.10;;;;;;5051741;28;20453;-67
2022/05/26 11:17:55;;;;;;;9.00;4.27;;;32.40;56.50;;;;;;5051673;28;20441;-65
2022/05/26 11:20:25;;;;;;;8.67;4.77;;;32.30;56.60;;;;;;5051619;28;20878;-66
2022/05/26 11:22:53;;;;;;;5.63;4.10;;;32.30;57.60;;;;;;5050951;28;20485;-64
2022/05/26 11:25:26;;;;;;;9.20;4.70;;;32.20;56.90;;;;;;5051225;28;20481;-67
2022/05/26 11:27:57;;;;;;;12.20;4.90;;;32.00;57.30;;;;;;5051098;28;20519;-65
2022/05/26 11:36:14;;;;;;;10.40;4.90;;;32.30;56.60;;;;;;5048676;28;20445;-65
2022/05/26 11:38:44;;;;;;;7.37;4.80;;;32.10;56.20;;;;;;5031475;28;20446;-66
2022/05/26 11:41:15;;;;;;;7.93;4.50;;;32.30;57.00;;;;;;5034921;28;21008;-67
2022/05/26 11:43:59;;;;;;;8.73;4.33;;;32.60;56.50;;;;;;5048802;28;20521;-67
2022/05/26 11:46:53;;;;;;;7.83;4.87;;;32.70;55.70;;;;;;5050827;28;20457;-71
2022/05/26 11:49:57;;;;;;;8.57;4.97;;;32.70;55.80;;;;;;5051052;28;20488;-68
2022/05/26 11:52:26;;;;;;;11.47;4.30;;;33.00;56.60;;;;;;5049567;28;20453;-67
2022/05/26 11:55:11;;;;;;;9.07;4.47;;;33.20;56.20;;;;;;5050802;28;20466;-68
2022/05/26 11:57:50;;;;;;;12.60;4.80;;;33.20;55.80;;;;;;5050821;28;20453;-68
2022/05/26 12:00:23;;;;;;;8.60;4.80;;;33.40;55.40;;;;;;5050937;28;20461;-73
2022/05/26 12:03:12;;;;;;;8.37;4.23;;;33.20;54.40;;;;;;5050439;28;20481;-65
2022/05/26 12:05:49;;;;;;;14.17;4.67;;;33.00;55.00;;;;;;5050307;28;20493;-65
2022/05/26 12:08:35;;;;;;;10.17;4.50;;;33.30;54.10;;;;;;5050532;28;20543;-66
2022/05/26 12:11:06;;;;;;;7.30;4.20;;;33.40;54.40;;;;;;5050281;28;20446;-65
2022/05/26 12:13:36;;;;;;;14.57;4.60;;;33.40;54.70;;;;;;5050484;28;20454;-70
2022/05/26 12:16:34;;;;;;;8.47;4.47;;;33.20;54.50;;;;;;5050262;28;20474;-68
2022/05/26 12:19:08;;;;;;;8.80;4.40;;;32.70;55.30;;;;;;5050387;28;20473;-70
2022/05/26 12:21:46;;;;;;;7.37;4.50;;;32.30;56.10;;;;;;5050091;28;20999;-67
2022/05/26 12:24:59;;;;;;;12.00;5.53;;;32.00;57.20;;;;;;5049949;28;20521;-64
2022/05/26 12:28:02;;;;;;;9.00;5.00;;;31.90;57.80;;;;;;5049897;28;20545;-70
2022/05/26 12:30:55;;;;;;;8.00;4.93;;;31.80;58.60;;;;;;5050104;28;20442;-67
2022/05/26 12:33:42;;;;;;;10.53;4.63;;;31.80;59.60;;;;;;5039099;28;20821;-66
2022/05/26 12:36:21;;;;;;;7.80;4.60;;;31.60;59.90;;;;;;5046476;28;20942;-68
2022/05/26 12:39:04;;;;;;;8.17;4.83;;;31.60;59.80;;;;;;5050035;28;20446;-67
2022/05/26 12:41:42;;;;;;;10.30;4.33;;;31.60;58.20;;;;;;5049663;28;20493;-68
2022/05/26 12:44:29;;;;;;;9.03;4.77;;;31.60;56.80;;;;;;5049541;28;20489;-69
2022/05/26 12:47:14;;;;;;;11.87;5.27;;;31.60;57.00;;;;;;5049782;28;20453;-67
2022/05/26 12:50:02;;;;;;;7.70;5.03;;;31.60;57.00;;;;;;5049938;28;20519;-67
2022/05/26 12:52:35;;;;;;;13.20;5.17;;;31.60;58.50;;;;;;5049445;28;20458;-67
2022/05/26 12:55:17;;;;;;;10.20;5.20;;;31.50;58.80;;;;;;5049006;28;20458;-67
2022/05/26 12:57:54;;;;;;;7.40;4.30;;;31.60;59.60;;;;;;5049794;28;20536;-66
2022/05/26 13:00:31;;;;;;;7.03;4.67;;;31.50;59.60;;;;;;5049271;28;20969;-67
2022/05/26 13:03:01;;;;;;;10.57;5.10;;;31.50;59.90;;;;;;5049467;28;20859;-66
2022/05/26 13:05:32;;;;;;;7.70;4.30;;;31.30;60.80;;;;;;5049459;28;20482;-67
2022/05/26 13:08:02;;;;;;;7.40;5.33;;;31.30;61.10;;;;;;5049569;28;20454;-66
2022/05/26 13:10:36;;;;;;;17.30;5.10;;;31.30;61.90;;;;;;5049708;28;20457;-66
2022/05/26 13:13:07;;;;;;;10.00;5.80;;;31.30;60.00;;;;;;5049651;28;20454;-67
2022/05/26 13:15:34;;;;;;;8.30;5.37;;;31.40;59.90;;;;;;5049488;28;20520;-66
2022/05/26 13:18:02;;;;;;;7.30;5.60;;;31.50;60.10;;;;;;5049330;28;20449;-66
2022/05/26 13:20:35;;;;;;;8.40;4.90;;;31.50;61.00;;;;;;5049334;28;20816;-66
2022/05/26 13:23:05;;;;;;;7.77;5.40;;;31.70;61.60;;;;;;5049435;28;20542;-66
2022/05/26 13:25:34;;;;;;;8.40;5.33;;;31.70;60.20;;;;;;5049530;28;20481;-66
2022/05/26 13:28:04;;;;;;;14.77;5.93;;;31.60;61.80;;;;;;5049068;28;20841;-67
2022/05/26 13:33:23;;;;;;;9.60;7.10;;;31.40;62.20;;;;;;5049469;28;20487;-66
2022/05/26 13:35:56;;;;;;;9.43;6.23;;;31.30;62.70;;;;;;5049340;28;20503;-67